Time;durP1;ratioP1;P1;durP2;ratioP2;P2;SDS_P1;SDS_P2;PMS_P1;PMS_P2;Temp;Humidity;BMP_temperature;BMP_pressure;BME280_temperature;BME280_humidity;BME280_pressure;Samples;Min_cycle;Max_cycle;Signal;HPM_P1;HPM_P2
2023/12/18 00:01:33;;;;;;;10.90;7.80;;;2.40;99.90;;;;;;5018195;28;20198;-84
2023/12/18 00:04:03;;;;;;;15.93;8.23;;;2.60;99.90;;;;;;5018997;28;20224;-84
2023/12/18 00:06:31;;;;;;;13.83;8.30;;;2.70;99.90;;;;;;5018785;28;20195;-84
2023/12/18 00:08:56;;;;;;;13.27;8.07;;;2.70;99.90;;;;;;5036650;28;20162;-83
2023/12/18 00:11:22;;;;;;;13.23;8.40;;;2.70;99.90;;;;;;5018630;28;20228;-84
2023/12/18 00:13:48;;;;;;;13.23;8.40;;;2.70;99.90;;;;;;5025371;28;20181;-84
2023/12/18 00:16:13;;;;;;;11.13;7.70;;;2.70;99.90;;;;;;5014217;28;20194;-84
2023/12/18 00:18:39;;;;;;;10.87;7.20;;;2.70;99.90;;;;;;5010115;28;20183;-84
2023/12/18 00:21:05;;;;;;;11.37;7.10;;;2.70;99.90;;;;;;5009992;28;20204;-84
2023/12/18 00:23:31;;;;;;;10.67;7.13;;;2.70;99.90;;;;;;5017761;28;20570;-84
2023/12/18 00:25:56;;;;;;;11.63;7.23;;;2.70;99.90;;;;;;5032816;28;20203;-84
2023/12/18 00:28:22;;;;;;;10.50;7.33;;;2.70;99.90;;;;;;5024359;28;20179;-84
2023/12/18 00:30:48;;;;;;;11.40;7.10;;;2.70;99.90;;;;;;5009709;28;20173;-84
2023/12/18 00:33:13;;;;;;;11.20;6.97;;;2.70;99.90;;;;;;5018018;28;20178;-84
2023/12/18 00:35:40;;;;;;;9.73;6.53;;;2.90;99.90;;;;;;5018071;28;20206;-83
2023/12/18 00:38:05;;;;;;;11.23;7.17;;;3.00;99.90;;;;;;5035747;28;20171;-84
2023/12/18 00:40:31;;;;;;;11.47;6.47;;;3.10;99.90;;;;;;5017798;28;20198;-83
2023/12/18 00:42:57;;;;;;;9.53;6.60;;;3.10;99.90;;;;;;5035804;28;20520;-84
2023/12/18 00:45:23;;;;;;;10.43;6.10;;;3.10;99.90;;;;;;5035870;28;20578;-84
2023/12/18 00:47:48;;;;;;;9.63;6.63;;;3.10;99.90;;;;;;5017748;28;20320;-84
2023/12/18 00:50:14;;;;;;;8.53;6.07;;;3.10;99.90;;;;;;5017688;28;20593;-83
2023/12/18 00:52:40;;;;;;;10.60;6.10;;;3.10;99.90;;;;;;5017939;28;20249;-84
2023/12/18 00:55:06;;;;;;;7.43;5.53;;;3.00;99.90;;;;;;5035715;28;20643;-83
2023/12/18 00:57:32;;;;;;;10.53;6.03;;;3.00;99.90;;;;;;5035449;28;20648;-83
2023/12/18 00:59:58;;;;;;;9.97;6.20;;;3.00;99.90;;;;;;5035224;28;20198;-84
2023/12/18 01:02:23;;;;;;;10.47;6.40;;;3.00;99.90;;;;;;5035875;28;20225;-84
2023/12/18 01:04:49;;;;;;;8.90;5.57;;;2.90;99.90;;;;;;5017539;28;20174;-83
2023/12/18 01:07:14;;;;;;;9.70;6.37;;;3.00;99.90;;;;;;5035543;28;20183;-85
2023/12/18 01:09:40;;;;;;;9.17;6.10;;;3.00;99.90;;;;;;5035289;28;20178;-84
2023/12/18 01:12:06;;;;;;;9.33;5.87;;;3.00;99.90;;;;;;5017479;28;20173;-84
2023/12/18 01:14:32;;;;;;;8.27;5.80;;;3.00;99.90;;;;;;5035460;28;20191;-84
2023/12/18 01:16:57;;;;;;;7.50;5.17;;;3.00;99.90;;;;;;5017238;28;20229;-83
2023/12/18 01:19:23;;;;;;;8.47;5.47;;;2.90;99.90;;;;;;5017747;28;20178;-84
2023/12/18 01:21:48;;;;;;;7.37;5.50;;;2.80;99.90;;;;;;5035269;28;20202;-84
2023/12/18 01:24:14;;;;;;;8.53;5.53;;;2.80;99.90;;;;;;5035082;28;20167;-84
2023/12/18 01:26:39;;;;;;;9.10;6.00;;;2.80;99.90;;;;;;5034870;28;20192;-84
2023/12/18 01:29:05;;;;;;;6.87;5.77;;;2.80;99.90;;;;;;5034942;28;20167;-85
2023/12/18 01:31:31;;;;;;;9.37;6.00;;;2.90;99.90;;;;;;5017042;28;20281;-83
2023/12/18 01:33:57;;;;;;;10.10;5.97;;;2.90;99.90;;;;;;5034380;28;20172;-83
2023/12/18 01:36:23;;;;;;;9.20;6.23;;;2.90;99.90;;;;;;5016723;28;20289;-84
2023/12/18 01:38:48;;;;;;;7.93;6.20;;;2.80;99.90;;;;;;5034691;28;20182;-83
2023/12/18 01:41:14;;;;;;;8.73;6.10;;;2.80;99.90;;;;;;5016716;28;20230;-83
2023/12/18 01:43:40;;;;;;;9.17;5.87;;;2.80;99.90;;;;;;5017251;28;20182;-83
2023/12/18 01:46:05;;;;;;;10.53;5.87;;;2.70;99.90;;;;;;5034462;28;20227;-83
2023/12/18 01:48:32;;;;;;;11.73;6.53;;;2.80;99.90;;;;;;5034881;28;20171;-83
2023/12/18 01:50:59;;;;;;;9.90;6.50;;;2.80;99.90;;;;;;5017101;28;20197;-85
2023/12/18 01:53:35;;;;;;;9.07;6.60;;;2.80;99.90;;;;;;5034520;28;20527;-83
2023/12/18 01:56:02;;;;;;;12.00;6.87;;;2.80;99.90;;;;;;5034818;28;20198;-83
2023/12/18 01:58:30;;;;;;;10.93;6.83;;;2.70;99.90;;;;;;5034659;28;20179;-85
2023/12/18 02:00:56;;;;;;;11.60;7.33;;;2.60;99.90;;;;;;5016557;28;20293;-83
2023/12/18 02:03:23;;;;;;;11.87;7.27;;;2.60;99.90;;;;;;5008019;28;20545;-84
2023/12/18 02:05:49;;;;;;;9.83;6.70;;;2.60;99.90;;;;;;4996395;28;20183;-84
2023/12/18 02:08:15;;;;;;;9.00;6.90;;;2.60;99.90;;;;;;4994997;28;20167;-84
2023/12/18 02:10:40;;;;;;;12.57;7.77;;;2.60;99.90;;;;;;4996874;28;20171;-84
2023/12/18 02:13:06;;;;;;;12.37;7.20;;;2.70;99.90;;;;;;5014539;28;20182;-85
2023/12/18 02:15:32;;;;;;;11.47;7.97;;;2.70;99.90;;;;;;4996607;28;20202;-83
2023/12/18 02:17:57;;;;;;;11.27;8.43;;;2.70;99.90;;;;;;4996825;28;20182;-83
2023/12/18 02:20:23;;;;;;;12.17;8.40;;;2.80;99.90;;;;;;4996441;28;20277;-84
2023/12/18 02:22:50;;;;;;;12.07;8.47;;;2.90;99.90;;;;;;5014394;28;20234;-84
2023/12/18 02:25:17;;;;;;;14.40;8.50;;;3.00;99.90;;;;;;5013757;28;20230;-84
2023/12/18 02:27:44;;;;;;;13.93;8.60;;;3.10;99.90;;;;;;4996522;28;20739;-84
2023/12/18 02:30:15;;;;;;;11.73;8.80;;;3.10;99.90;;;;;;4996457;28;20180;-84
2023/12/18 02:32:41;;;;;;;14.37;9.00;;;3.10;99.90;;;;;;4996743;28;20218;-86
2023/12/18 02:35:07;;;;;;;12.93;8.50;;;3.10;99.90;;;;;;5013703;28;20273;-84
2023/12/18 02:37:33;;;;;;;13.23;8.40;;;3.20;99.90;;;;;;5101168;22;20313;-83
2023/12/18 02:39:58;;;;;;;15.87;10.00;;;3.30;99.90;;;;;;5051817;28;20190;-83
2023/12/18 02:42:24;;;;;;;16.10;9.70;;;3.40;99.90;;;;;;5051055;28;20174;-84
2023/12/18 02:44:50;;;;;;;16.90;10.10;;;3.70;99.90;;;;;;5050836;28;20224;-83
2023/12/18 02:47:15;;;;;;;14.97;9.20;;;3.90;99.90;;;;;;5050865;28;20236;-84
2023/12/18 02:49:41;;;;;;;15.20;9.43;;;4.00;99.90;;;;;;5050831;28;20181;-84
2023/12/18 02:52:07;;;;;;;12.83;8.17;;;4.00;99.90;;;;;;5052015;28;20173;-84
2023/12/18 02:54:32;;;;;;;15.90;8.57;;;4.20;99.90;;;;;;5052218;28;20180;-84
2023/12/18 02:56:58;;;;;;;14.77;9.13;;;4.40;99.90;;;;;;5050992;28;20628;-84
2023/12/18 02:59:23;;;;;;;16.40;8.87;;;4.50;99.90;;;;;;5051953;28;20639;-84
2023/12/18 03:01:49;;;;;;;17.13;8.77;;;4.60;99.90;;;;;;5050606;28;20754;-84
2023/12/18 03:04:18;;;;;;;15.50;9.00;;;4.60;99.90;;;;;;5051765;28;20174;-84
2023/12/18 03:06:48;;;;;;;17.10;8.73;;;4.70;99.90;;;;;;5050457;28;20197;-85
2023/12/18 03:09:14;;;;;;;13.17;7.90;;;4.80;99.90;;;;;;5050491;28;20189;-84
2023/12/18 03:11:40;;;;;;;13.43;7.20;;;4.90;99.90;;;;;;5050621;28;20182;-84
2023/12/18 03:14:10;;;;;;;13.53;7.10;;;4.90;99.90;;;;;;5050729;28;20216;-85
2023/12/18 03:16:36;;;;;;;8.57;6.57;;;5.00;99.90;;;;;;5050498;28;20202;-85
2023/12/18 03:19:02;;;;;;;9.57;7.20;;;5.10;99.90;;;;;;5050496;28;20173;-85
2023/12/18 03:21:28;;;;;;;12.00;8.07;;;5.10;99.90;;;;;;5051488;28;20204;-84
2023/12/18 03:23:53;;;;;;;12.20;7.23;;;5.10;99.90;;;;;;5051751;28;20183;-85
2023/12/18 03:26:19;;;;;;;12.17;7.53;;;5.00;99.90;;;;;;5051615;28;20619;-84
2023/12/18 03:28:45;;;;;;;11.67;7.80;;;5.00;99.90;;;;;;5050401;28;20170;-85
2023/12/18 03:31:11;;;;;;;14.67;8.53;;;4.90;99.90;;;;;;5051713;28;20720;-85
2023/12/18 03:33:37;;;;;;;11.73;7.83;;;4.80;99.90;;;;;;5050434;28;20190;-85
2023/12/18 03:36:06;;;;;;;15.73;8.50;;;4.60;99.90;;;;;;5050054;28;20278;-86
2023/12/18 03:38:31;;;;;;;13.80;7.93;;;4.50;99.90;;;;;;5050597;28;20193;-85
2023/12/18 03:40:57;;;;;;;11.40;7.50;;;4.40;99.90;;;;;;5051359;28;20751;-85
2023/12/18 03:43:23;;;;;;;11.70;7.33;;;4.30;99.90;;;;;;5050286;28;20528;-85
2023/12/18 03:45:49;;;;;;;11.70;7.57;;;4.30;99.90;;;;;;5051447;28;20280;-85
2023/12/18 03:48:15;;;;;;;11.77;7.30;;;4.30;99.90;;;;;;5051541;28;20269;-85
2023/12/18 03:50:42;;;;;;;10.73;6.73;;;4.20;99.90;;;;;;5051172;28;20186;-86
2023/12/18 03:53:08;;;;;;;9.90;6.60;;;4.20;99.90;;;;;;5051355;28;20176;-85
2023/12/18 03:55:34;;;;;;;10.93;6.87;;;4.20;99.90;;;;;;5051380;28;20178;-85
2023/12/18 03:58:00;;;;;;;10.73;6.53;;;4.20;99.90;;;;;;5052173;28;20224;-85
2023/12/18 04:00:26;;;;;;;10.53;7.40;;;4.20;99.90;;;;;;5053565;28;20194;-85
2023/12/18 04:02:51;;;;;;;12.87;7.30;;;4.20;99.90;;;;;;5053817;28;20183;-85
2023/12/18 04:05:17;;;;;;;10.33;7.07;;;4.20;99.90;;;;;;5054987;28;20168;-85
2023/12/18 04:07:43;;;;;;;10.33;6.40;;;4.20;99.90;;;;;;5055183;28;20198;-85
2023/12/18 04:10:09;;;;;;;10.27;6.10;;;4.30;99.90;;;;;;5053540;28;20647;-84
2023/12/18 04:12:35;;;;;;;9.23;6.07;;;4.40;99.90;;;;;;5053601;28;20186;-85
2023/12/18 04:15:01;;;;;;;11.47;6.57;;;4.50;99.90;;;;;;5053764;28;20173;-85
2023/12/18 04:17:26;;;;;;;13.80;6.93;;;4.50;99.90;;;;;;5053480;28;20200;-84
2023/12/18 04:19:52;;;;;;;11.27;6.60;;;4.50;99.90;;;;;;5053171;28;20174;-85
2023/12/18 04:22:17;;;;;;;10.23;6.60;;;4.40;99.90;;;;;;5053422;28;20205;-85
2023/12/18 04:24:43;;;;;;;11.73;6.97;;;4.40;99.90;;;;;;5054734;28;20174;-85
2023/12/18 04:27:09;;;;;;;12.53;6.60;;;4.30;99.90;;;;;;5053137;28;20194;-85
2023/12/18 04:29:34;;;;;;;10.87;6.83;;;4.40;99.90;;;;;;5054595;28;20186;-85
2023/12/18 04:32:00;;;;;;;10.37;6.73;;;4.30;99.90;;;;;;5053444;28;20177;-85
2023/12/18 04:34:26;;;;;;;9.60;6.67;;;4.30;99.90;;;;;;5054455;28;20219;-84
2023/12/18 04:36:51;;;;;;;13.53;6.93;;;4.20;99.90;;;;;;5054476;28;20211;-85
2023/12/18 04:39:17;;;;;;;10.63;7.07;;;4.20;99.90;;;;;;5054425;28;20204;-85
2023/12/18 04:41:44;;;;;;;9.70;6.97;;;4.20;99.90;;;;;;5054324;28;20206;-85
2023/12/18 04:44:10;;;;;;;10.40;7.03;;;4.10;99.90;;;;;;5054329;28;20166;-85
2023/12/18 04:46:36;;;;;;;10.33;6.80;;;4.20;99.90;;;;;;5052999;28;20198;-85
2023/12/18 04:49:03;;;;;;;10.93;7.60;;;4.20;99.90;;;;;;5054493;28;20573;-84
2023/12/18 04:51:29;;;;;;;10.27;7.37;;;4.10;99.90;;;;;;5054311;28;20244;-86
2023/12/18 04:53:55;;;;;;;12.57;7.40;;;4.00;99.90;;;;;;5053745;28;20213;-85
2023/12/18 04:56:21;;;;;;;9.83;7.07;;;3.90;99.90;;;;;;5052601;28;20198;-85
2023/12/18 04:58:46;;;;;;;13.47;7.67;;;3.90;99.90;;;;;;5044399;28;20174;-85
2023/12/18 05:01:12;;;;;;;13.10;7.27;;;3.90;99.90;;;;;;5053925;28;20601;-85
2023/12/18 05:03:38;;;;;;;12.87;7.77;;;3.90;99.90;;;;;;5054361;28;20227;-85
2023/12/18 05:06:03;;;;;;;11.30;7.60;;;3.80;99.90;;;;;;5052742;28;20216;-85
2023/12/18 05:08:29;;;;;;;11.73;6.90;;;3.80;99.90;;;;;;5051926;28;20227;-86
2023/12/18 05:10:55;;;;;;;11.63;7.57;;;3.70;99.90;;;;;;5053303;28;20248;-85
2023/12/18 05:13:21;;;;;;;10.47;7.23;;;3.70;99.90;;;;;;5052771;28;20189;-84
2023/12/18 05:15:46;;;;;;;12.90;6.17;;;3.70;99.90;;;;;;5052576;28;20197;-84
2023/12/18 05:18:12;;;;;;;10.73;6.33;;;3.80;99.90;;;;;;5051149;28;20239;-84
2023/12/18 05:20:38;;;;;;;12.97;6.60;;;3.70;99.90;;;;;;5053430;28;20194;-84
2023/12/18 05:23:04;;;;;;;7.60;5.80;;;3.80;99.90;;;;;;5052466;28;20169;-81
2023/12/18 05:25:29;;;;;;;9.70;6.03;;;3.70;99.90;;;;;;5054232;28;20177;-81
2023/12/18 05:27:55;;;;;;;11.63;6.70;;;3.80;99.90;;;;;;5055292;28;20185;-85
2023/12/18 05:30:21;;;;;;;12.20;7.43;;;3.80;99.90;;;;;;5054826;28;20205;-84
2023/12/18 05:32:46;;;;;;;9.90;6.43;;;3.90;99.90;;;;;;5054234;28;20190;-85
2023/12/18 05:35:12;;;;;;;7.70;6.17;;;3.90;99.90;;;;;;5052618;28;20173;-84
2023/12/18 05:37:37;;;;;;;11.83;5.80;;;3.80;99.90;;;;;;5053330;28;20209;-84
2023/12/18 05:40:04;;;;;;;10.23;6.77;;;3.70;99.90;;;;;;5051846;28;20684;-84
2023/12/18 05:42:30;;;;;;;10.17;6.70;;;3.60;99.90;;;;;;5053297;28;20174;-86
2023/12/18 05:44:55;;;;;;;8.70;6.20;;;3.60;99.90;;;;;;5053525;28;20175;-84
2023/12/18 05:47:21;;;;;;;13.77;6.43;;;3.60;99.90;;;;;;5051677;28;20220;-84
2023/12/18 05:49:46;;;;;;;10.07;6.27;;;3.50;99.90;;;;;;5053300;28;20173;-83
2023/12/18 05:52:12;;;;;;;11.73;7.00;;;3.50;99.90;;;;;;5053421;28;20174;-82
2023/12/18 05:54:38;;;;;;;10.17;6.83;;;3.40;99.90;;;;;;5053165;28;20181;-82
2023/12/18 05:57:04;;;;;;;10.80;6.97;;;3.40;99.90;;;;;;5053111;28;20247;-81
2023/12/18 05:59:29;;;;;;;7.73;6.33;;;3.50;99.90;;;;;;5051577;28;20177;-83
2023/12/18 06:01:55;;;;;;;10.37;6.73;;;3.40;99.90;;;;;;5052563;28;20217;-85
2023/12/18 06:04:21;;;;;;;11.10;6.77;;;3.40;99.90;;;;;;5056146;28;20186;-85
2023/12/18 06:06:47;;;;;;;11.57;6.97;;;3.30;99.90;;;;;;5052765;28;20330;-82
2023/12/18 06:09:13;;;;;;;12.90;7.40;;;3.20;99.90;;;;;;5051838;28;20169;-85
2023/12/18 06:11:38;;;;;;;11.13;7.13;;;3.20;99.90;;;;;;5052872;28;20181;-84
2023/12/18 06:14:04;;;;;;;13.03;6.77;;;3.10;99.90;;;;;;5053511;28;20178;-84
2023/12/18 06:16:30;;;;;;;8.93;6.77;;;3.10;99.90;;;;;;5051281;28;20280;-86
2023/12/18 06:18:55;;;;;;;11.00;6.83;;;3.00;99.90;;;;;;5052948;28;20177;-86
2023/12/18 06:21:21;;;;;;;11.07;7.00;;;3.00;99.90;;;;;;5052137;28;20209;-85
2023/12/18 06:23:46;;;;;;;12.90;7.37;;;3.10;99.90;;;;;;5052702;28;20169;-85
2023/12/18 06:26:12;;;;;;;11.30;7.10;;;3.00;99.90;;;;;;5052377;28;20215;-85
2023/12/18 06:28:37;;;;;;;11.67;7.07;;;2.90;99.90;;;;;;5051182;28;20165;-85
2023/12/18 06:31:03;;;;;;;8.90;6.80;;;2.90;99.90;;;;;;5052021;28;20223;-85
2023/12/18 06:33:29;;;;;;;10.90;6.97;;;2.80;99.90;;;;;;5052265;28;20685;-85
2023/12/18 06:35:54;;;;;;;9.67;6.87;;;2.80;99.90;;;;;;5052108;28;20205;-86
2023/12/18 06:38:20;;;;;;;12.77;8.50;;;2.70;99.90;;;;;;5051818;28;20502;-85
2023/12/18 06:40:46;;;;;;;9.67;7.00;;;2.60;99.90;;;;;;5051972;28;20193;-87
2023/12/18 06:43:11;;;;;;;9.60;6.63;;;2.50;99.90;;;;;;5051071;28;20169;-83
2023/12/18 06:45:37;;;;;;;9.77;7.03;;;2.40;99.90;;;;;;5050966;28;20203;-86
2023/12/18 06:48:03;;;;;;;11.23;6.83;;;2.30;99.90;;;;;;5052139;28;20650;-86
2023/12/18 06:50:29;;;;;;;9.03;6.20;;;2.20;99.90;;;;;;5050842;28;20242;-86
2023/12/18 06:52:55;;;;;;;10.77;7.23;;;2.20;99.90;;;;;;5051939;28;20698;-86
2023/12/18 06:55:21;;;;;;;9.57;6.93;;;2.20;99.90;;;;;;5052058;28;20184;-86
2023/12/18 06:57:46;;;;;;;10.67;7.23;;;2.20;99.90;;;;;;5050701;28;20189;-86
2023/12/18 07:00:13;;;;;;;10.73;7.27;;;2.20;99.90;;;;;;5052058;28;20204;-86
2023/12/18 07:02:38;;;;;;;10.40;6.63;;;2.20;99.90;;;;;;5050750;28;20174;-85
2023/12/18 07:05:04;;;;;;;10.33;7.27;;;2.20;99.90;;;;;;5052033;28;20730;-85
2023/12/18 07:07:30;;;;;;;11.00;7.03;;;2.20;99.90;;;;;;5051836;28;20216;-88
2023/12/18 07:09:55;;;;;;;12.50;7.27;;;2.20;99.90;;;;;;5050871;28;20254;-85
2023/12/18 07:12:21;;;;;;;11.63;7.50;;;2.10;99.90;;;;;;5051733;28;20231;-85
2023/12/18 07:14:47;;;;;;;10.60;7.17;;;2.00;99.90;;;;;;5051746;28;20170;-86
2023/12/18 07:17:12;;;;;;;11.73;7.50;;;2.00;99.90;;;;;;5050619;28;20578;-85
2023/12/18 07:19:41;;;;;;;10.77;7.30;;;1.90;99.90;;;;;;5050954;28;20589;-84
2023/12/18 07:22:07;;;;;;;10.83;6.70;;;1.80;99.90;;;;;;5048836;28;20259;-84
2023/12/18 07:24:33;;;;;;;10.00;6.63;;;1.90;99.90;;;;;;5050165;28;20177;-85
2023/12/18 07:27:00;;;;;;;11.53;7.10;;;2.20;99.90;;;;;;5051692;28;20196;-82
2023/12/18 07:29:25;;;;;;;11.67;7.27;;;2.20;99.90;;;;;;5050245;28;20174;-86
2023/12/18 07:31:51;;;;;;;11.10;6.73;;;2.10;99.90;;;;;;5051713;28;20173;-86
2023/12/18 07:34:16;;;;;;;10.00;7.20;;;2.10;99.90;;;;;;5054701;28;20223;-86
2023/12/18 07:36:42;;;;;;;10.23;6.53;;;2.10;99.90;;;;;;5054680;28;20208;-85
2023/12/18 07:39:08;;;;;;;10.03;6.60;;;2.10;99.90;;;;;;5055936;28;20181;-85
2023/12/18 07:41:34;;;;;;;12.07;6.70;;;2.10;99.90;;;;;;5054129;28;20200;-85
2023/12/18 07:44:00;;;;;;;9.47;6.87;;;1.90;99.90;;;;;;5054162;28;20170;-85
2023/12/18 07:46:26;;;;;;;11.37;7.13;;;1.70;99.90;;;;;;5055536;28;20197;-85
2023/12/18 07:48:53;;;;;;;8.87;6.87;;;1.60;99.90;;;;;;5055420;28;20172;-85
2023/12/18 07:51:19;;;;;;;9.67;6.90;;;1.60;99.90;;;;;;5054345;28;20181;-85
2023/12/18 07:53:44;;;;;;;11.53;7.53;;;1.60;99.90;;;;;;5055449;28;20649;-85
2023/12/18 07:56:10;;;;;;;11.00;6.90;;;1.60;99.90;;;;;;5055503;28;20246;-85
2023/12/18 07:58:36;;;;;;;10.93;7.03;;;1.50;99.90;;;;;;5055180;28;20183;-85
2023/12/18 08:01:03;;;;;;;10.03;6.93;;;1.50;99.90;;;;;;5055224;28;20317;-85
2023/12/18 08:03:29;;;;;;;11.93;7.50;;;1.60;99.90;;;;;;5054026;28;20177;-85
2023/12/18 08:05:55;;;;;;;10.63;7.00;;;1.50;99.90;;;;;;5053668;28;20251;-85
2023/12/18 08:08:20;;;;;;;10.83;7.33;;;1.40;99.90;;;;;;5053765;28;20218;-86
2023/12/18 08:10:46;;;;;;;10.77;7.60;;;1.40;99.90;;;;;;5054797;28;20251;-85
2023/12/18 08:13:11;;;;;;;12.87;7.60;;;1.40;99.90;;;;;;5054975;28;20196;-85
2023/12/18 08:15:37;;;;;;;12.20;7.67;;;1.40;99.90;;;;;;5053754;28;20181;-85
2023/12/18 08:18:03;;;;;;;13.17;7.50;;;1.40;99.90;;;;;;5053571;28;20181;-85
2023/12/18 08:20:28;;;;;;;10.77;7.13;;;1.30;99.90;;;;;;5054777;28;20206;-84
2023/12/18 08:22:54;;;;;;;12.30;8.10;;;1.20;99.90;;;;;;5055030;28;20170;-83
2023/12/18 08:25:21;;;;;;;12.50;8.47;;;1.20;99.90;;;;;;5053559;28;20592;-84
2023/12/18 08:27:47;;;;;;;13.70;7.83;;;1.20;99.90;;;;;;5053279;28;20763;-84
2023/12/18 08:30:13;;;;;;;12.23;7.90;;;1.30;99.90;;;;;;5053512;28;20171;-84
2023/12/18 08:32:39;;;;;;;13.90;7.87;;;1.40;99.90;;;;;;5054920;28;20193;-84
2023/12/18 08:35:08;;;;;;;10.80;7.20;;;1.50;99.90;;;;;;5054739;28;20186;-84
2023/12/18 08:37:34;;;;;;;9.80;7.33;;;1.60;99.90;;;;;;5113578;22;20223;-85
2023/12/18 08:39:59;;;;;;;10.73;7.60;;;1.60;99.90;;;;;;5054828;28;20183;-85
2023/12/18 08:42:25;;;;;;;11.93;8.13;;;1.70;99.90;;;;;;5055048;28;20217;-85
2023/12/18 08:44:50;;;;;;;12.00;7.67;;;1.70;99.90;;;;;;5053544;28;20192;-85
2023/12/18 08:47:16;;;;;;;11.57;7.37;;;1.90;99.90;;;;;;5055184;28;20192;-85
2023/12/18 08:49:42;;;;;;;11.97;7.70;;;2.00;99.90;;;;;;5055114;28;20172;-85
2023/12/18 08:52:08;;;;;;;13.40;7.37;;;2.20;99.90;;;;;;5053928;28;20168;-87
2023/12/18 08:54:33;;;;;;;11.67;7.33;;;2.30;99.90;;;;;;5053839;28;20227;-85
2023/12/18 08:56:59;;;;;;;12.13;7.57;;;2.30;99.90;;;;;;5053860;28;20227;-85
2023/12/18 08:59:24;;;;;;;10.47;7.57;;;2.50;99.90;;;;;;5053798;28;20196;-85
2023/12/18 09:01:50;;;;;;;14.20;7.97;;;2.70;99.90;;;;;;5055109;28;20291;-85
2023/12/18 09:04:16;;;;;;;9.90;6.63;;;2.70;99.90;;;;;;5053893;28;20197;-87
2023/12/18 09:06:41;;;;;;;10.40;7.43;;;2.90;99.90;;;;;;5053740;28;20196;-86
2023/12/18 09:09:07;;;;;;;10.73;7.13;;;3.00;99.90;;;;;;5054577;28;20275;-86
2023/12/18 09:11:33;;;;;;;10.87;7.70;;;3.20;99.90;;;;;;5053678;28;20184;-85
2023/12/18 09:14:05;;;;;;;10.50;7.07;;;3.30;99.90;;;;;;5052625;28;20197;-87
2023/12/18 09:16:31;;;;;;;10.97;6.57;;;3.40;99.90;;;;;;5052819;28;20190;-86
2023/12/18 09:18:57;;;;;;;9.77;7.00;;;3.50;99.90;;;;;;5052554;28;20226;-87
2023/12/18 09:21:22;;;;;;;13.60;7.23;;;3.60;99.90;;;;;;5053517;28;20212;-87
2023/12/18 09:23:49;;;;;;;10.13;6.80;;;3.80;99.90;;;;;;5052160;28;20657;-87
2023/12/18 09:26:15;;;;;;;18.77;12.13;;;3.90;99.90;;;;;;5052664;28;20190;-87
2023/12/18 09:28:42;;;;;;;10.40;7.83;;;4.00;99.90;;;;;;5053712;28;20189;-87
2023/12/18 09:31:07;;;;;;;30.80;16.70;;;4.10;99.90;;;;;;5053653;28;20260;-87
2023/12/18 09:33:33;;;;;;;19.80;12.23;;;4.20;99.90;;;;;;5052295;28;20208;-86
2023/12/18 09:36:00;;;;;;;16.20;9.20;;;4.20;99.90;;;;;;5053238;28;20180;-87
2023/12/18 09:38:26;;;;;;;13.53;9.20;;;4.20;99.90;;;;;;5052085;28;20328;-86
2023/12/18 09:40:51;;;;;;;15.60;9.87;;;4.40;99.90;;;;;;5052141;28;20206;-86
2023/12/18 09:43:18;;;;;;;11.80;8.07;;;4.50;99.90;;;;;;5052095;28;20185;-86
2023/12/18 09:45:51;;;;;;;10.40;7.47;;;4.50;99.90;;;;;;5053434;28;20185;-87
2023/12/18 09:48:17;;;;;;;8.50;6.30;;;4.60;99.90;;;;;;5053290;28;20178;-87
2023/12/18 09:50:46;;;;;;;9.43;6.57;;;4.50;99.90;;;;;;5053067;28;20182;-87
2023/12/18 09:53:13;;;;;;;9.37;7.20;;;4.60;99.90;;;;;;5053050;28;20253;-87
2023/12/18 09:55:40;;;;;;;8.80;6.67;;;4.60;99.90;;;;;;5051376;28;20201;-87
2023/12/18 09:58:06;;;;;;;10.00;6.60;;;4.60;99.90;;;;;;5051856;28;20199;-87
2023/12/18 10:00:32;;;;;;;10.03;6.93;;;4.70;99.90;;;;;;5051687;28;20210;-86
2023/12/18 10:02:59;;;;;;;8.77;6.10;;;4.80;90.90;;;;;;5052896;28;20174;-86
2023/12/18 10:05:25;;;;;;;8.97;6.30;;;5.00;99.90;;;;;;5052858;28;20643;-86
2023/12/18 10:07:51;;;;;;;8.00;6.20;;;5.10;1.00;;;;;;5051695;28;20224;-87
2023/12/18 10:10:17;;;;;;;9.20;6.50;;;5.30;1.00;;;;;;5052898;28;20177;-86
2023/12/18 10:12:42;;;;;;;9.53;6.93;;;5.30;1.00;;;;;;5051702;28;20237;-86
2023/12/18 10:15:09;;;;;;;10.13;7.40;;;5.30;1.00;;;;;;5051456;28;20225;-87
2023/12/18 10:17:38;;;;;;;11.57;8.27;;;5.40;1.00;;;;;;5052637;28;20233;-86
2023/12/18 10:20:04;;;;;;;8.13;6.13;;;5.50;1.00;;;;;;5051171;28;20192;-86
2023/12/18 10:22:31;;;;;;;9.83;6.90;;;5.70;1.00;;;;;;5051258;28;20173;-86
2023/12/18 10:24:59;;;;;;;8.53;5.93;;;5.90;1.00;;;;;;5052492;28;20182;-87
2023/12/18 10:27:25;;;;;;;9.07;6.50;;;5.90;99.90;;;;;;5051291;28;20195;-86
2023/12/18 10:29:53;;;;;;;10.70;7.30;;;6.00;99.90;;;;;;5051316;28;20181;-87
2023/12/18 10:32:21;;;;;;;9.10;6.47;;;6.20;1.00;;;;;;5053174;28;20181;-85
2023/12/18 10:34:48;;;;;;;8.00;6.30;;;6.30;1.00;;;;;;5051146;28;20232;-86
2023/12/18 10:37:15;;;;;;;6.37;5.23;;;6.30;1.00;;;;;;5052185;28;20245;-86
2023/12/18 10:39:41;;;;;;;6.00;4.50;;;6.50;1.00;;;;;;5051165;28;20177;-87
2023/12/18 10:42:22;;;;;;;6.83;4.80;;;6.50;1.00;;;;;;5051072;28;20211;-86
2023/12/18 10:44:49;;;;;;;7.37;5.07;;;6.60;99.90;;;;;;5052307;28;20181;-86
2023/12/18 10:47:16;;;;;;;7.97;5.90;;;6.60;1.00;;;;;;5052045;28;20259;-86
2023/12/18 10:49:42;;;;;;;7.33;5.90;;;6.70;99.90;;;;;;5052381;28;20242;-86
2023/12/18 10:52:09;;;;;;;8.63;6.90;;;6.80;1.00;;;;;;5052347;28;20188;-86
2023/12/18 10:54:35;;;;;;;6.10;4.97;;;6.90;1.00;;;;;;5052262;28;20177;-86
2023/12/18 10:57:02;;;;;;;7.07;4.80;;;6.90;1.00;;;;;;5051968;28;20681;-86
2023/12/18 10:59:29;;;;;;;6.33;4.87;;;7.10;99.90;;;;;;5052210;28;20173;-85
2023/12/18 11:01:57;;;;;;;5.40;4.30;;;7.10;99.90;;;;;;5050550;28;20194;-85
2023/12/18 11:04:24;;;;;;;6.30;4.53;;;7.10;99.90;;;;;;5051955;28;20169;-86
2023/12/18 11:06:50;;;;;;;6.23;4.40;;;7.20;99.90;;;;;;5051974;28;20190;-86
2023/12/18 11:09:16;;;;;;;6.87;5.07;;;7.30;1.00;;;;;;5050557;28;20169;-86
2023/12/18 11:11:42;;;;;;;7.53;5.10;;;7.40;1.00;;;;;;5050643;28;20270;-86
2023/12/18 11:14:34;;;;;;;11.50;7.60;;;7.60;99.90;;;;;;5051735;28;20171;-86
2023/12/18 11:17:19;;;;;;;7.47;4.73;;;7.70;1.00;;;;;;5051707;28;20236;-86
2023/12/18 11:19:54;;;;;;;5.37;4.53;;;7.80;1.00;;;;;;5052039;28;20176;-86
2023/12/18 11:22:39;;;;;;;6.53;4.97;;;7.70;1.00;;;;;;5050602;28;20208;-86
2023/12/18 11:25:06;;;;;;;5.33;4.30;;;7.60;99.90;;;;;;5050681;28;20177;-86
2023/12/18 11:27:33;;;;;;;6.87;4.60;;;7.60;1.00;;;;;;5051978;28;20190;-86
2023/12/18 11:30:00;;;;;;;6.40;5.00;;;7.60;1.00;;;;;;5050436;28;20262;-86
2023/12/18 11:32:45;;;;;;;6.93;4.87;;;7.70;1.00;;;;;;5050663;28;20183;-88
2023/12/18 11:35:12;;;;;;;6.47;5.07;;;7.60;99.90;;;;;;5050409;28;20236;-86
2023/12/18 11:37:44;;;;;;;6.17;4.70;;;7.70;1.00;;;;;;5051673;28;20217;-86
2023/12/18 11:40:35;;;;;;;6.13;4.83;;;7.80;1.00;;;;;;5050334;28;20177;-87
2023/12/18 11:43:01;;;;;;;6.43;4.50;;;7.90;1.00;;;;;;5044304;28;20183;-87
2023/12/18 11:45:27;;;;;;;5.03;3.63;;;8.10;1.00;;;;;;5050399;28;20174;-86
2023/12/18 11:47:57;;;;;;;5.37;4.13;;;8.20;1.00;;;;;;5051656;28;20192;-87
2023/12/18 11:50:26;;;;;;;5.20;4.27;;;8.30;1.00;;;;;;5050387;28;20173;-86
2023/12/18 11:52:56;;;;;;;5.77;4.30;;;8.50;99.90;;;;;;5050192;28;20181;-86
2023/12/18 11:55:36;;;;;;;4.93;4.23;;;8.60;99.90;;;;;;5050327;28;20265;-86
2023/12/18 11:58:03;;;;;;;4.37;3.50;;;8.60;99.90;;;;;;5051371;28;20204;-86
2023/12/18 12:00:33;;;;;;;5.07;4.20;;;8.60;1.00;;;;;;5051444;28;20203;-86
2023/12/18 12:02:59;;;;;;;6.03;4.33;;;8.50;99.90;;;;;;5050460;28;20177;-86
2023/12/18 12:05:26;;;;;;;5.57;3.87;;;8.60;99.90;;;;;;5050282;28;20173;-86
2023/12/18 12:07:52;;;;;;;4.67;3.90;;;8.60;42.50;;;;;;5050022;28;20708;-87
2023/12/18 12:10:18;;;;;;;5.53;4.30;;;8.70;99.90;;;;;;5049971;28;20181;-86
2023/12/18 12:12:44;;;;;;;4.73;4.10;;;8.70;99.90;;;;;;5051552;28;20185;-86
2023/12/18 12:15:10;;;;;;;4.33;3.67;;;8.70;99.90;;;;;;5051491;28;20179;-87
2023/12/18 12:17:36;;;;;;;4.40;3.80;;;8.70;99.90;;;;;;5051220;28;20197;-86
2023/12/18 12:20:08;;;;;;;5.00;3.80;;;8.60;1.00;;;;;;5053324;28;20191;-86
2023/12/18 12:22:37;;;;;;;5.00;3.83;;;8.60;99.90;;;;;;5054884;28;20175;-86
2023/12/18 12:25:03;;;;;;;4.47;3.63;;;8.70;88.80;;;;;;5054770;28;20646;-86
2023/12/18 12:27:29;;;;;;;5.70;4.47;;;8.80;56.60;;;;;;5054580;28;20198;-87
2023/12/18 12:29:55;;;;;;;4.80;3.77;;;8.90;1.00;;;;;;5053408;28;20238;-86
2023/12/18 12:32:20;;;;;;;4.33;3.67;;;8.90;1.00;;;;;;5053708;28;20208;-86
2023/12/18 12:34:46;;;;;;;4.93;3.80;;;9.00;1.00;;;;;;5053583;28;20180;-86
2023/12/18 12:37:12;;;;;;;5.50;3.70;;;9.10;1.00;;;;;;5054839;28;20214;-84
2023/12/18 12:39:38;;;;;;;4.87;3.70;;;9.20;1.00;;;;;;5053917;28;20177;-85
2023/12/18 12:42:04;;;;;;;3.90;3.33;;;9.10;1.00;;;;;;5054130;28;20219;-84
2023/12/18 12:44:29;;;;;;;3.97;3.27;;;9.00;99.90;;;;;;5054626;28;20173;-83
2023/12/18 12:46:55;;;;;;;3.87;3.33;;;9.10;99.90;;;;;;5053999;28;20297;-85
2023/12/18 12:49:21;;;;;;;4.03;3.50;;;9.30;1.00;;;;;;5054633;28;20264;-86